createdAt,value
2023-07-08T00:01:14.576Z,100.00
2023-07-08T00:03:42.622Z,100.00
2023-07-08T00:06:15.751Z,100.00
2023-07-08T00:08:43.405Z,100.00
2023-07-08T00:11:12.855Z,100.00
2023-07-08T00:13:40.619Z,100.00
2023-07-08T00:16:11.795Z,100.00
2023-07-08T00:18:40.800Z,100.00
2023-07-08T00:21:11.256Z,100.00
2023-07-08T00:23:38.855Z,100.00
2023-07-08T00:26:11.996Z,100.00
2023-07-08T00:28:39.605Z,100.00
2023-07-08T00:31:10.860Z,100.00
2023-07-08T00:33:40.182Z,100.00
2023-07-08T00:36:11.739Z,100.00
2023-07-08T00:38:39.294Z,100.00
2023-07-08T00:41:10.529Z,100.00
2023-07-08T00:43:40.698Z,100.00
2023-07-08T00:46:22.700Z,100.00
2023-07-08T00:48:52.857Z,100.00
2023-07-08T00:51:21.591Z,100.00
2023-07-08T00:53:49.310Z,100.00
2023-07-08T00:56:19.322Z,100.00
2023-07-08T00:58:50.546Z,100.00
2023-07-08T01:01:18.413Z,100.00
2023-07-08T01:03:52.390Z,100.00
2023-07-08T01:06:22.281Z,100.00
2023-07-08T01:08:53.681Z,100.00
2023-07-08T01:11:23.412Z,100.00
2023-07-08T01:13:52.715Z,100.00
2023-07-08T01:16:20.425Z,100.00
2023-07-08T01:18:53.882Z,100.00
2023-07-08T01:21:34.289Z,100.00
2023-07-08T01:24:04.913Z,100.00
2023-07-08T01:26:34.156Z,100.00
2023-07-08T01:29:02.532Z,100.00
2023-07-08T01:31:30.402Z,100.00
2023-07-08T01:33:58.145Z,100.00
2023-07-08T01:36:26.565Z,100.00
2023-07-08T01:38:54.264Z,100.00
2023-07-08T01:41:23.158Z,100.00
2023-07-08T01:43:50.718Z,100.00
2023-07-08T01:46:21.856Z,100.00
2023-07-08T01:48:53.730Z,100.00
2023-07-08T01:51:22.136Z,100.00
2023-07-08T01:53:49.774Z,100.00
2023-07-08T01:56:17.461Z,100.00
2023-07-08T01:58:46.481Z,100.00
2023-07-08T02:01:14.171Z,100.00
2023-07-08T02:03:43.228Z,100.00
2023-07-08T02:06:12.679Z,100.00
2023-07-08T02:08:40.215Z,100.00
2023-07-08T02:11:07.773Z,100.00
2023-07-08T02:13:35.400Z,100.00
2023-07-08T02:16:04.441Z,100.00
2023-07-08T02:18:33.435Z,100.00
2023-07-08T02:21:01.130Z,100.00
2023-07-08T02:23:29.033Z,100.00
2023-07-08T02:25:57.323Z,100.00
2023-07-08T02:28:24.954Z,100.00
2023-07-08T02:30:52.536Z,100.00
2023-07-08T02:33:22.013Z,100.00
2023-07-08T02:35:49.584Z,100.00
2023-07-08T02:38:17.229Z,100.00
2023-07-08T02:40:45.334Z,100.00
2023-07-08T02:43:12.907Z,100.00
2023-07-08T02:45:40.538Z,100.00
2023-07-08T02:48:08.177Z,100.00
2023-07-08T02:50:37.120Z,100.00
2023-07-08T02:53:04.678Z,100.00
2023-07-08T02:55:32.641Z,100.00
2023-07-08T02:58:00.271Z,100.00
2023-07-08T03:00:27.882Z,100.00
2023-07-08T03:02:55.570Z,100.00
2023-07-08T03:05:23.197Z,100.00
2023-07-08T03:07:52.113Z,100.00
2023-07-08T03:10:19.652Z,100.00
2023-07-08T03:12:47.228Z,100.00
2023-07-08T03:15:14.913Z,100.00
2023-07-08T03:17:43.099Z,100.00
2023-07-08T03:20:11.791Z,100.00
2023-07-08T03:22:39.518Z,100.00
2023-07-08T03:25:10.356Z,100.00
2023-07-08T03:27:37.985Z,100.00
2023-07-08T03:30:06.398Z,100.00
2023-07-08T03:32:33.978Z,100.00
2023-07-08T03:35:02.550Z,100.00
2023-07-08T03:37:30.121Z,100.00
2023-07-08T03:39:57.684Z,100.00
2023-07-08T03:42:26.664Z,100.00
2023-07-08T03:44:54.244Z,100.00
2023-07-08T03:47:22.097Z,100.00
2023-07-08T03:49:49.832Z,100.00
2023-07-08T03:52:18.125Z,100.00
2023-07-08T03:54:46.447Z,100.00
2023-07-08T03:57:14.047Z,100.00
2023-07-08T03:59:43.000Z,100.00
2023-07-08T04:02:10.969Z,100.00
2023-07-08T04:04:38.623Z,100.00
2023-07-08T04:07:06.305Z,100.00
2023-07-08T04:09:33.909Z,100.00
2023-07-08T04:12:01.558Z,100.00
2023-07-08T04:14:29.152Z,100.00
2023-07-08T04:16:59.926Z,100.00
2023-07-08T04:19:28.359Z,100.00
2023-07-08T04:21:56.134Z,100.00
2023-07-08T04:24:23.767Z,100.00
2023-07-08T04:26:52.014Z,100.00
2023-07-08T04:29:21.204Z,100.00
2023-07-08T04:31:49.419Z,100.00
2023-07-08T04:34:18.546Z,100.00
2023-07-08T04:36:46.552Z,100.00
2023-07-08T04:39:15.081Z,100.00
2023-07-08T04:41:44.972Z,100.00
2023-07-08T04:44:13.082Z,100.00
2023-07-08T04:46:42.546Z,100.00
2023-07-08T04:49:11.516Z,100.00
2023-07-08T04:51:40.636Z,100.00
2023-07-08T04:54:08.400Z,100.00
2023-07-08T04:56:39.259Z,100.00
2023-07-08T04:59:07.487Z,100.00
2023-07-08T05:04:18.465Z,100.00
2023-07-08T05:06:47.637Z,100.00
2023-07-08T05:09:17.323Z,100.00
2023-07-08T05:11:45.772Z,100.00
2023-07-08T05:14:14.193Z,100.00
2023-07-08T05:16:42.046Z,100.00
2023-07-08T05:19:09.971Z,100.00
2023-07-08T05:21:39.178Z,100.00
2023-07-08T05:24:08.839Z,100.00
2023-07-08T05:26:36.464Z,100.00
2023-07-08T05:29:04.136Z,100.00
2023-07-08T05:31:46.464Z,100.00
2023-07-08T05:34:14.642Z,100.00
2023-07-08T05:36:42.259Z,100.00
2023-07-08T05:39:11.255Z,100.00
2023-07-08T05:41:38.926Z,100.00
2023-07-08T05:44:06.582Z,100.00
2023-07-08T05:46:34.263Z,100.00
2023-07-08T05:49:02.301Z,100.00
2023-07-08T05:51:30.202Z,100.00
2023-07-08T05:53:57.801Z,100.00
2023-07-08T05:56:26.771Z,100.00
2023-07-08T05:58:54.356Z,100.00
2023-07-08T06:01:22.016Z,100.00
2023-07-08T06:03:51.178Z,100.00
2023-07-08T06:06:19.030Z,100.00
2023-07-08T06:08:46.970Z,100.00
2023-07-08T06:11:14.544Z,100.00
2023-07-08T06:13:43.600Z,100.00
2023-07-08T06:16:11.275Z,100.00
2023-07-08T06:18:38.880Z,100.00
2023-07-08T06:21:07.882Z,100.00
2023-07-08T06:23:35.584Z,100.00
2023-07-08T06:26:03.159Z,100.00
2023-07-08T06:28:30.799Z,100.00
2023-07-08T06:31:00.174Z,100.00
2023-07-08T06:33:27.944Z,100.00
2023-07-08T06:35:55.600Z,100.00
2023-07-08T06:38:23.334Z,100.00
2023-07-08T06:40:50.901Z,100.00
2023-07-08T06:43:18.494Z,100.00
2023-07-08T06:45:46.325Z,100.00
2023-07-08T06:48:15.778Z,95.08
2023-07-08T06:50:44.277Z,94.15
2023-07-08T06:53:11.857Z,92.77
2023-07-08T06:55:39.753Z,89.74
2023-07-08T06:58:07.379Z,86.13
2023-07-08T07:00:35.197Z,80.41
2023-07-08T07:03:02.891Z,79.52
2023-07-08T07:05:31.853Z,83.60
2023-07-08T07:08:00.079Z,72.29
2023-07-08T07:10:27.754Z,72.98
2023-07-08T07:12:55.533Z,71.65
2023-07-08T07:15:23.156Z,66.02
2023-07-08T07:17:50.792Z,65.93
2023-07-08T07:20:18.674Z,61.92
2023-07-08T07:22:47.673Z,61.81
2023-07-08T07:25:15.340Z,60.91
2023-07-08T07:27:42.940Z,62.97
2023-07-08T07:30:13.924Z,58.67
2023-07-08T07:32:41.560Z,61.93
2023-07-08T07:35:13.885Z,58.95
2023-07-08T07:37:41.985Z,57.83
2023-07-08T07:40:13.580Z,56.49
2023-07-08T07:42:41.443Z,52.57
2023-07-08T07:45:09.757Z,53.45
2023-07-08T07:47:38.000Z,53.02
2023-07-08T07:50:06.335Z,54.87
2023-07-08T07:52:34.194Z,52.77
2023-07-08T07:55:01.820Z,51.21
2023-07-08T07:57:30.720Z,50.22
2023-07-08T07:59:58.289Z,50.17
2023-07-08T08:02:25.942Z,47.43
2023-07-08T08:04:53.493Z,46.81
2023-07-08T08:07:21.206Z,47.00
2023-07-08T08:09:48.754Z,45.97
2023-07-08T08:12:16.313Z,47.46
2023-07-08T08:14:45.444Z,45.93
2023-07-08T08:17:13.124Z,43.74
2023-07-08T08:19:40.860Z,43.15
2023-07-08T08:22:08.461Z,42.50
2023-07-08T08:24:36.154Z,44.21
2023-07-08T08:27:04.023Z,44.79
2023-07-08T08:29:31.582Z,44.91
2023-07-08T08:32:00.523Z,44.68
2023-07-08T08:34:29.277Z,43.88
2023-07-08T08:36:56.986Z,43.59
2023-07-08T08:39:25.567Z,42.16
2023-07-08T08:41:54.569Z,43.51
2023-07-08T08:44:29.836Z,44.08
2023-07-08T08:47:03.091Z,45.15
2023-07-08T08:49:34.417Z,45.04
2023-07-08T08:52:01.993Z,44.38
2023-07-08T08:54:31.242Z,41.75
2023-07-08T08:57:03.490Z,43.46
2023-07-08T08:59:39.230Z,42.45
2023-07-08T09:02:24.309Z,41.85
2023-07-08T09:04:51.998Z,40.81
2023-07-08T09:07:21.944Z,41.58
2023-07-08T09:09:54.060Z,41.45
2023-07-08T09:12:25.913Z,39.34
2023-07-08T09:14:53.534Z,41.50
2023-07-08T09:17:28.091Z,39.82
2023-07-08T09:20:01.660Z,40.55
2023-07-08T09:22:35.038Z,39.67
2023-07-08T09:25:07.268Z,38.45
2023-07-08T09:27:34.850Z,39.42
2023-07-08T09:30:02.557Z,38.54
2023-07-08T09:32:35.110Z,39.39
2023-07-08T09:35:06.501Z,38.51
2023-07-08T09:37:35.786Z,38.45
2023-07-08T09:40:06.634Z,37.76
2023-07-08T09:42:35.584Z,39.22
2023-07-08T09:45:06.541Z,36.72
2023-07-08T09:47:39.128Z,39.78
2023-07-08T09:50:19.029Z,39.28
2023-07-08T09:52:48.221Z,41.47
2023-07-08T09:55:16.440Z,42.10
2023-07-08T09:57:45.289Z,42.16
2023-07-08T10:00:16.426Z,40.14
2023-07-08T10:02:48.326Z,38.89
2023-07-08T10:05:20.140Z,42.69
2023-07-08T10:07:49.188Z,43.40
2023-07-08T10:10:19.448Z,42.41
2023-07-08T10:12:56.260Z,40.59
2023-07-08T10:15:27.229Z,41.25
2023-07-08T10:17:56.641Z,44.89
2023-07-08T10:20:24.735Z,41.00
2023-07-08T10:23:04.284Z,40.88
2023-07-08T10:25:37.642Z,40.27
2023-07-08T10:28:21.374Z,36.56
2023-07-08T10:30:55.781Z,37.46
2023-07-08T10:33:39.542Z,42.02
2023-07-08T10:36:20.513Z,37.38
2023-07-08T10:38:59.775Z,37.74
2023-07-08T10:41:33.101Z,37.22
2023-07-08T10:44:07.568Z,37.82
2023-07-08T10:46:41.466Z,37.93
2023-07-08T10:49:38.435Z,38.23
2023-07-08T10:52:17.700Z,37.67
2023-07-08T10:54:57.099Z,38.24
2023-07-08T10:57:46.922Z,40.04
2023-07-08T11:00:25.016Z,41.50
2023-07-08T11:03:06.223Z,41.32
2023-07-08T11:05:42.465Z,38.77
2023-07-08T11:08:14.998Z,43.55
2023-07-08T11:10:48.262Z,40.91
2023-07-08T11:13:20.196Z,38.94
2023-07-08T11:15:53.410Z,41.65
2023-07-08T11:18:26.708Z,41.55
2023-07-08T11:21:00.371Z,39.93
2023-07-08T11:23:31.942Z,39.66
2023-07-08T11:26:09.764Z,38.50
2023-07-08T11:28:37.322Z,36.83
2023-07-08T11:31:06.818Z,36.47
2023-07-08T11:33:36.316Z,35.50
2023-07-08T11:36:06.044Z,34.46
2023-07-08T11:38:35.267Z,34.64
2023-07-08T11:41:05.384Z,35.45
2023-07-08T11:43:37.072Z,34.83
2023-07-08T11:46:07.589Z,34.75
2023-07-08T11:48:40.951Z,34.14
2023-07-08T11:51:10.941Z,33.60
2023-07-08T11:53:40.750Z,33.94
2023-07-08T11:56:22.333Z,31.39
2023-07-08T11:59:00.010Z,31.79
2023-07-08T12:01:30.291Z,30.32
2023-07-08T12:04:02.649Z,29.99
2023-07-08T12:06:49.943Z,31.76
2023-07-08T12:09:25.679Z,31.60
2023-07-08T12:11:56.038Z,32.51
2023-07-08T12:14:25.034Z,31.71
2023-07-08T12:16:52.650Z,31.67
2023-07-08T12:19:22.483Z,30.36
2023-07-08T12:21:51.425Z,30.56
2023-07-08T12:24:26.335Z,30.79
2023-07-08T12:26:54.009Z,30.83
2023-07-08T12:29:21.805Z,31.85
2023-07-08T12:31:49.595Z,30.60
2023-07-08T12:34:18.005Z,31.11
2023-07-08T12:36:46.063Z,28.71
2023-07-08T12:39:17.400Z,28.83
2023-07-08T12:41:46.724Z,29.73
2023-07-08T12:44:20.711Z,30.63
2023-07-08T12:46:49.264Z,27.44
2023-07-08T12:49:18.050Z,25.38
2023-07-08T12:51:46.287Z,25.06
2023-07-08T12:54:15.777Z,23.45
2023-07-08T12:56:46.018Z,22.61
2023-07-08T12:59:16.745Z,21.61
2023-07-08T13:01:44.787Z,21.80
2023-07-08T13:04:13.716Z,22.03
2023-07-08T13:06:42.876Z,21.21
2023-07-08T13:09:37.885Z,21.81
2023-07-08T13:12:23.674Z,21.25
2023-07-08T13:14:51.548Z,21.15
2023-07-08T13:17:19.224Z,18.92
2023-07-08T13:19:47.496Z,19.30
2023-07-08T13:22:18.666Z,19.74
2023-07-08T13:24:48.137Z,19.54
2023-07-08T13:27:22.522Z,18.23
2023-07-08T13:29:50.266Z,18.32
2023-07-08T13:32:17.855Z,17.65
2023-07-08T13:34:45.445Z,19.12
2023-07-08T13:37:15.160Z,19.88
2023-07-08T13:39:47.805Z,19.67
2023-07-08T13:42:15.675Z,17.84
2023-07-08T13:44:47.032Z,19.86
2023-07-08T13:47:23.828Z,22.37
2023-07-08T13:49:58.450Z,23.11
2023-07-08T13:52:26.074Z,24.07
2023-07-08T13:54:57.034Z,23.60
2023-07-08T13:57:31.867Z,23.37
2023-07-08T13:59:59.477Z,23.49
2023-07-08T14:02:32.798Z,22.14
2023-07-08T14:05:01.539Z,22.08
2023-07-08T14:07:32.042Z,21.56
2023-07-08T14:10:01.117Z,20.84
2023-07-08T14:12:28.857Z,21.73
2023-07-08T14:14:56.489Z,22.66
2023-07-08T14:17:26.319Z,23.36
2023-07-08T14:19:54.288Z,23.42
2023-07-08T14:22:25.186Z,25.87
2023-07-08T14:24:52.801Z,24.93
2023-07-08T14:27:21.993Z,25.26
2023-07-08T14:29:51.610Z,26.16
2023-07-08T14:32:22.715Z,24.83
2023-07-08T14:34:54.232Z,25.04
2023-07-08T14:37:21.972Z,23.41
2023-07-08T14:39:50.343Z,23.64
2023-07-08T14:42:19.723Z,25.70
2023-07-08T14:44:49.920Z,26.16
2023-07-08T14:47:19.081Z,26.66
2023-07-08T14:49:47.016Z,27.29
2023-07-08T14:52:14.918Z,26.68
2023-07-08T14:54:42.478Z,28.10
2023-07-08T14:57:11.635Z,28.80
2023-07-08T14:59:39.204Z,28.70
2023-07-08T15:02:20.712Z,28.91
2023-07-08T15:04:48.381Z,29.94
2023-07-08T15:07:15.925Z,29.89
2023-07-08T15:09:43.522Z,31.52
2023-07-08T15:12:13.012Z,32.57
2023-07-08T15:14:41.009Z,29.41
2023-07-08T15:17:16.303Z,31.53
2023-07-08T15:19:44.411Z,29.41
2023-07-08T15:22:12.056Z,29.94
2023-07-08T15:24:39.634Z,26.65
2023-07-08T15:27:08.298Z,26.40
2023-07-08T15:29:35.885Z,26.57
2023-07-08T15:32:04.521Z,28.05
2023-07-08T15:34:36.774Z,29.16
2023-07-08T15:37:04.390Z,30.01
2023-07-08T15:39:31.929Z,29.35
2023-07-08T15:42:00.293Z,32.50
2023-07-08T15:44:28.112Z,33.49
2023-07-08T15:46:56.237Z,30.68
2023-07-08T15:49:28.163Z,31.46
2023-07-08T15:51:57.640Z,31.96
2023-07-08T15:54:25.220Z,33.60
2023-07-08T15:56:54.576Z,31.53
2023-07-08T15:59:26.030Z,31.42
2023-07-08T16:01:53.885Z,32.34
2023-07-08T16:04:25.937Z,32.91
2023-07-08T16:06:53.655Z,33.03
2023-07-08T16:09:22.613Z,30.00
2023-07-08T16:11:50.411Z,31.38
2023-07-08T16:14:18.725Z,32.78
2023-07-08T16:16:46.390Z,33.45
2023-07-08T16:19:15.438Z,33.71
2023-07-08T16:21:43.608Z,34.00
2023-07-08T16:24:11.292Z,32.78
2023-07-08T16:26:41.108Z,33.04
2023-07-08T16:29:11.236Z,34.12
2023-07-08T16:31:38.841Z,33.15
2023-07-08T16:34:06.544Z,32.51
2023-07-08T16:36:34.105Z,34.84
2023-07-08T16:39:03.731Z,33.92
2023-07-08T16:41:36.437Z,33.51
2023-07-08T16:44:10.056Z,35.87
2023-07-08T16:46:37.832Z,34.82
2023-07-08T16:49:05.602Z,32.76
2023-07-08T16:51:35.737Z,34.50
2023-07-08T16:54:12.051Z,34.24
2023-07-08T16:56:41.156Z,31.89
2023-07-08T16:59:10.470Z,32.04
2023-07-08T17:01:38.117Z,35.14
2023-07-08T17:04:07.422Z,32.56
2023-07-08T17:06:35.098Z,31.66
2023-07-08T17:09:05.757Z,35.72
2023-07-08T17:11:33.501Z,32.52
2023-07-08T17:14:01.096Z,33.17
2023-07-08T17:16:34.914Z,32.31
2023-07-08T17:19:02.647Z,33.90
2023-07-08T17:21:30.233Z,39.24
2023-07-08T17:23:57.877Z,38.58
2023-07-08T17:26:25.511Z,38.90
2023-07-08T17:28:53.364Z,37.47
2023-07-08T17:33:58.759Z,36.49
2023-07-08T17:36:30.604Z,37.95
2023-07-08T17:38:59.057Z,37.98
2023-07-08T17:41:27.016Z,38.68
2023-07-08T17:43:54.976Z,38.83
2023-07-08T17:46:25.642Z,39.29
2023-07-08T17:48:53.382Z,41.66
2023-07-08T17:51:24.022Z,40.23
2023-07-08T17:53:53.138Z,100.00
2023-07-08T17:56:23.119Z,100.00
2023-07-08T17:58:53.039Z,100.00
2023-07-08T18:01:22.458Z,100.00
2023-07-08T18:03:50.474Z,100.00
2023-07-08T18:06:18.585Z,100.00
2023-07-08T18:08:47.701Z,100.00
2023-07-08T18:11:15.955Z,100.00
2023-07-08T18:13:43.772Z,100.00
2023-07-08T18:16:13.098Z,100.00
2023-07-08T18:18:40.703Z,100.00
2023-07-08T18:21:14.437Z,100.00
2023-07-08T18:23:42.592Z,100.00
2023-07-08T18:26:17.693Z,100.00
2023-07-08T18:28:45.286Z,100.00
2023-07-08T18:31:13.523Z,100.00
2023-07-08T18:33:41.404Z,100.00
2023-07-08T18:36:11.740Z,100.00
2023-07-08T18:38:39.538Z,100.00
2023-07-08T18:41:15.303Z,100.00
2023-07-08T18:43:43.051Z,100.00
2023-07-08T18:46:12.509Z,100.00
2023-07-08T18:48:40.222Z,100.00
2023-07-08T18:51:14.000Z,100.00
2023-07-08T18:53:42.112Z,100.00
2023-07-08T18:56:16.076Z,100.00
2023-07-08T18:58:44.253Z,100.00
2023-07-08T19:01:16.945Z,100.00
2023-07-08T19:03:44.847Z,100.00
2023-07-08T19:06:13.608Z,100.00
2023-07-08T19:08:41.286Z,100.00
2023-07-08T19:11:19.641Z,100.00
2023-07-08T19:13:47.335Z,100.00
2023-07-08T19:16:18.036Z,100.00
2023-07-08T19:18:45.633Z,100.00
2023-07-08T19:21:15.257Z,100.00
2023-07-08T19:23:46.592Z,100.00
2023-07-08T19:26:15.929Z,100.00
2023-07-08T19:28:45.410Z,100.00
2023-07-08T19:31:22.785Z,100.00
2023-07-08T19:33:51.521Z,100.00
2023-07-08T19:36:20.904Z,100.00
2023-07-08T19:38:48.992Z,100.00
2023-07-08T19:41:17.893Z,100.00
2023-07-08T19:43:46.864Z,100.00
2023-07-08T19:46:16.960Z,100.00
2023-07-08T19:48:45.769Z,100.00
2023-07-08T19:51:13.823Z,100.00
2023-07-08T19:53:41.463Z,100.00
2023-07-08T19:56:13.358Z,100.00
2023-07-08T19:58:41.086Z,100.00
2023-07-08T20:01:10.124Z,100.00
2023-07-08T20:03:38.109Z,100.00
2023-07-08T20:06:12.724Z,100.00
2023-07-08T20:08:40.268Z,100.00
2023-07-08T20:11:09.581Z,100.00
2023-07-08T20:13:37.222Z,100.00
2023-07-08T20:16:15.214Z,100.00
2023-07-08T20:18:42.949Z,100.00
2023-07-08T20:21:10.710Z,97.49
2023-07-08T20:23:38.963Z,100.00
2023-07-08T20:26:07.291Z,100.00
2023-07-08T20:28:46.023Z,100.00
2023-07-08T20:31:16.130Z,100.00
2023-07-08T20:33:43.722Z,100.00
2023-07-08T20:36:13.963Z,100.00
2023-07-08T20:38:41.529Z,100.00
2023-07-08T20:41:09.573Z,100.00
2023-07-08T20:43:37.338Z,100.00
2023-07-08T20:46:05.386Z,100.00
2023-07-08T20:48:34.600Z,100.00
2023-07-08T20:51:02.160Z,100.00
2023-07-08T20:53:29.761Z,100.00
2023-07-08T20:55:57.330Z,100.00
2023-07-08T20:58:26.914Z,100.00
2023-07-08T21:00:54.689Z,100.00
2023-07-08T21:03:24.239Z,100.00
2023-07-08T21:05:55.952Z,100.00
2023-07-08T21:08:27.304Z,100.00
2023-07-08T21:10:57.729Z,100.00
2023-07-08T21:13:25.461Z,100.00
2023-07-08T21:15:53.111Z,100.00
2023-07-08T21:18:22.645Z,100.00
2023-07-08T21:20:53.806Z,100.00
2023-07-08T21:23:22.940Z,100.00
2023-07-08T21:25:52.300Z,100.00
2023-07-08T21:28:27.036Z,100.00
2023-07-08T21:30:54.741Z,100.00
2023-07-08T21:33:22.737Z,100.00
2023-07-08T21:35:50.482Z,100.00
2023-07-08T21:38:18.959Z,100.00
2023-07-08T21:40:49.328Z,100.00
2023-07-08T21:43:19.847Z,100.00
2023-07-08T21:45:48.008Z,100.00
2023-07-08T21:48:17.012Z,100.00
2023-07-08T21:50:48.368Z,100.00
2023-07-08T21:53:18.823Z,100.00
2023-07-08T21:55:48.427Z,100.00
2023-07-08T21:58:16.816Z,100.00
2023-07-08T22:00:47.604Z,100.00
2023-07-08T22:03:16.927Z,100.00
2023-07-08T22:05:45.285Z,100.00
2023-07-08T22:08:16.583Z,100.00
2023-07-08T22:10:45.682Z,100.00
2023-07-08T22:13:25.499Z,100.00
2023-07-08T22:15:54.210Z,100.00
2023-07-08T22:18:23.284Z,100.00
2023-07-08T22:20:53.017Z,100.00
2023-07-08T22:23:20.875Z,100.00
2023-07-08T22:25:48.494Z,100.00
2023-07-08T22:28:16.268Z,100.00
2023-07-08T22:30:46.349Z,100.00
2023-07-08T22:33:16.282Z,100.00
2023-07-08T22:35:44.297Z,100.00
2023-07-08T22:38:12.421Z,100.00
2023-07-08T22:40:49.629Z,100.00
2023-07-08T22:43:19.274Z,100.00
2023-07-08T22:45:48.209Z,100.00
2023-07-08T22:48:16.476Z,100.00
2023-07-08T22:50:44.806Z,100.00
2023-07-08T22:53:15.340Z,100.00
2023-07-08T22:55:43.760Z,100.00
2023-07-08T22:58:20.748Z,100.00
2023-07-08T23:00:49.777Z,100.00
2023-07-08T23:03:17.598Z,100.00
2023-07-08T23:05:47.459Z,100.00
2023-07-08T23:08:17.218Z,100.00
2023-07-08T23:10:44.955Z,100.00
2023-07-08T23:13:18.128Z,100.00
2023-07-08T23:15:46.135Z,100.00
2023-07-08T23:18:18.551Z,100.00
2023-07-08T23:20:46.641Z,100.00
2023-07-08T23:23:14.273Z,100.00
2023-07-08T23:25:42.169Z,100.00
2023-07-08T23:28:12.143Z,100.00
2023-07-08T23:30:39.737Z,100.00
2023-07-08T23:33:07.507Z,100.00
2023-07-08T23:35:36.441Z,100.00
2023-07-08T23:38:05.191Z,100.00
2023-07-08T23:40:32.767Z,100.00
2023-07-08T23:43:00.725Z,100.00
2023-07-08T23:45:28.450Z,100.00
2023-07-08T23:47:56.053Z,100.00
2023-07-08T23:50:24.191Z,100.00
2023-07-08T23:52:53.113Z,100.00
2023-07-08T23:55:20.839Z,100.00
2023-07-08T23:57:48.413Z,100.00
